createdAt,value
2023-03-18T00:01:34.693Z,10.37
2023-03-18T00:04:02.893Z,11.47
2023-03-18T00:06:31.283Z,13.13
2023-03-18T00:08:59.533Z,15.07
2023-03-18T00:11:27.564Z,10.43
2023-03-18T00:13:55.723Z,10.83
2023-03-18T00:16:23.929Z,14.83
2023-03-18T00:18:53.892Z,10.80
2023-03-18T00:21:24.079Z,11.93
2023-03-18T00:23:56.493Z,10.47
2023-03-18T00:26:25.221Z,13.70
2023-03-18T00:28:53.827Z,14.27
2023-03-18T00:31:22.635Z,14.77
2023-03-18T00:33:51.428Z,12.30
2023-03-18T00:36:25.779Z,12.43
2023-03-18T00:38:57.927Z,13.80
2023-03-18T00:41:27.504Z,13.80
2023-03-18T00:43:56.038Z,13.20
2023-03-18T00:46:26.555Z,11.20
2023-03-18T00:48:57.005Z,12.67
2023-03-18T00:51:28.312Z,11.63
2023-03-18T00:54:02.008Z,16.57
2023-03-18T00:56:32.156Z,11.40
2023-03-18T00:59:00.867Z,11.20
2023-03-18T01:01:29.485Z,13.57
2023-03-18T01:03:57.979Z,11.97
2023-03-18T01:06:31.678Z,13.13
2023-03-18T01:09:01.697Z,10.10
2023-03-18T01:11:30.553Z,13.00
2023-03-18T01:13:59.662Z,11.67
2023-03-18T01:16:28.610Z,14.77
2023-03-18T01:18:56.795Z,15.13
2023-03-18T01:21:25.608Z,17.30
2023-03-18T01:23:55.304Z,21.40
2023-03-18T01:26:23.795Z,16.50
2023-03-18T01:28:51.941Z,14.40
2023-03-18T01:31:20.690Z,14.33
2023-03-18T01:33:49.043Z,14.70
2023-03-18T01:36:17.683Z,16.10
2023-03-18T01:38:45.772Z,17.57
2023-03-18T01:41:16.781Z,12.57
2023-03-18T01:43:45.201Z,15.53
2023-03-18T01:46:36.556Z,13.47
2023-03-18T01:49:09.144Z,13.67
2023-03-18T01:51:38.879Z,13.80
2023-03-18T01:54:08.398Z,14.03
2023-03-18T01:56:42.050Z,14.30
2023-03-18T01:59:12.644Z,12.33
2023-03-18T02:01:45.228Z,15.53
2023-03-18T02:06:42.485Z,14.47
2023-03-18T02:09:11.457Z,10.20
2023-03-18T02:11:44.331Z,11.37
2023-03-18T02:14:16.210Z,11.87
2023-03-18T02:16:49.369Z,9.90
2023-03-18T02:19:31.768Z,13.87
2023-03-18T02:22:12.059Z,14.40
2023-03-18T02:24:48.848Z,12.23
2023-03-18T02:27:20.979Z,10.93
2023-03-18T02:29:50.477Z,12.00
2023-03-18T02:32:19.465Z,10.20
2023-03-18T02:34:48.813Z,13.53
2023-03-18T02:37:16.990Z,11.00
2023-03-18T02:39:45.329Z,11.83
2023-03-18T02:42:14.700Z,11.37
2023-03-18T02:44:47.112Z,12.73
2023-03-18T02:47:20.976Z,12.93
2023-03-18T02:49:49.328Z,13.63
2023-03-18T02:52:17.490Z,12.30
2023-03-18T02:54:45.767Z,11.87
2023-03-18T02:57:13.882Z,9.23
2023-03-18T02:59:43.474Z,11.53
2023-03-18T03:02:11.928Z,13.40
2023-03-18T03:04:40.283Z,13.53
2023-03-18T03:07:08.665Z,9.87
2023-03-18T03:09:38.023Z,10.37
2023-03-18T03:12:06.767Z,10.40
2023-03-18T03:14:35.026Z,9.37
2023-03-18T03:17:04.786Z,8.50
2023-03-18T03:19:33.334Z,9.43
2023-03-18T03:22:03.078Z,11.00
2023-03-18T03:24:32.094Z,11.20
2023-03-18T03:27:02.317Z,7.20
2023-03-18T03:29:31.219Z,8.73
2023-03-18T03:31:59.423Z,7.73
2023-03-18T03:34:29.278Z,8.80
2023-03-18T03:36:57.501Z,12.53
2023-03-18T03:39:25.654Z,11.03
2023-03-18T03:41:54.055Z,8.23
2023-03-18T03:44:22.357Z,10.40
2023-03-18T03:46:51.071Z,10.07
2023-03-18T03:49:19.491Z,9.07
2023-03-18T03:51:49.127Z,11.13
2023-03-18T03:54:17.733Z,11.23
2023-03-18T03:56:46.796Z,11.77
2023-03-18T03:59:14.998Z,13.27
2023-03-18T04:01:43.177Z,13.23
2023-03-18T04:04:11.411Z,12.70
2023-03-18T04:06:39.676Z,15.07
2023-03-18T04:09:09.858Z,15.73
2023-03-18T04:11:38.571Z,13.70
2023-03-18T04:14:07.006Z,12.73
2023-03-18T04:16:35.362Z,11.70
2023-03-18T04:19:03.739Z,12.73
2023-03-18T04:21:31.978Z,15.40
2023-03-18T04:24:04.103Z,13.77
2023-03-18T04:26:33.740Z,14.23
2023-03-18T04:29:01.922Z,16.00
2023-03-18T04:31:30.143Z,13.13
2023-03-18T04:34:00.509Z,17.00
2023-03-18T04:36:28.660Z,51.83
2023-03-18T04:38:57.769Z,34.80
2023-03-18T04:41:26.145Z,20.97
2023-03-18T04:43:55.819Z,17.60
2023-03-18T04:46:23.970Z,14.90
2023-03-18T04:48:52.400Z,20.83
2023-03-18T04:51:20.853Z,19.33
2023-03-18T04:53:49.060Z,19.23
2023-03-18T04:56:17.656Z,18.27
2023-03-18T04:58:45.865Z,15.40
2023-03-18T05:01:16.183Z,14.70
2023-03-18T05:03:44.688Z,11.60
2023-03-18T05:06:22.088Z,16.80
2023-03-18T05:08:50.489Z,14.17
2023-03-18T05:11:19.216Z,19.10
2023-03-18T05:13:47.950Z,16.30
2023-03-18T05:16:17.766Z,16.07
2023-03-18T05:18:47.017Z,13.27
2023-03-18T05:21:15.803Z,15.10
2023-03-18T05:23:44.342Z,14.80
2023-03-18T05:26:12.762Z,14.43
2023-03-18T05:28:41.382Z,13.90
2023-03-18T05:31:09.659Z,14.47
2023-03-18T05:33:39.678Z,14.70
2023-03-18T05:36:09.451Z,16.63
2023-03-18T05:38:37.761Z,18.57
2023-03-18T05:41:06.420Z,14.50
2023-03-18T05:43:34.707Z,27.00
2023-03-18T05:46:04.451Z,22.77
2023-03-18T05:48:33.189Z,15.07
2023-03-18T05:51:02.826Z,13.57
2023-03-18T05:53:32.194Z,15.73
2023-03-18T05:56:00.802Z,14.53
2023-03-18T05:58:31.435Z,14.77
2023-03-18T06:01:00.345Z,17.43
2023-03-18T06:03:29.768Z,13.80
2023-03-18T06:05:58.045Z,14.97
2023-03-18T06:08:29.066Z,12.87
2023-03-18T06:10:57.386Z,14.43
2023-03-18T06:13:25.638Z,13.00
2023-03-18T06:15:58.469Z,12.87
2023-03-18T06:18:27.958Z,13.67
2023-03-18T06:20:56.220Z,12.60
2023-03-18T06:23:24.509Z,12.67
2023-03-18T06:25:53.997Z,12.60
2023-03-18T06:28:22.289Z,13.27
2023-03-18T06:30:50.515Z,12.90
2023-03-18T06:33:18.716Z,10.37
2023-03-18T06:35:49.552Z,11.63
2023-03-18T06:38:18.263Z,10.83
2023-03-18T06:40:48.143Z,9.70
2023-03-18T06:43:17.789Z,11.17
2023-03-18T06:45:47.330Z,11.93
2023-03-18T06:48:15.934Z,13.23
2023-03-18T06:50:44.409Z,12.33
2023-03-18T06:53:14.772Z,12.30
2023-03-18T06:55:43.513Z,11.73
2023-03-18T06:58:12.264Z,11.70
2023-03-18T07:00:45.544Z,15.07
2023-03-18T07:03:15.733Z,15.13
2023-03-18T07:05:44.289Z,14.53
2023-03-18T07:08:12.521Z,14.40
2023-03-18T07:10:40.940Z,16.07
2023-03-18T07:13:09.211Z,10.90
2023-03-18T07:15:38.894Z,13.03
2023-03-18T07:18:11.989Z,11.60
2023-03-18T07:20:40.344Z,11.53
2023-03-18T07:23:08.569Z,11.73
2023-03-18T07:25:37.410Z,11.70
2023-03-18T07:28:06.289Z,15.93
2023-03-18T07:30:35.733Z,10.23
2023-03-18T07:33:04.156Z,17.53
2023-03-18T07:35:34.163Z,13.97
2023-03-18T07:38:02.712Z,10.43
2023-03-18T07:40:30.982Z,12.10
2023-03-18T07:42:59.207Z,14.87
2023-03-18T07:45:27.732Z,12.53
2023-03-18T07:47:55.981Z,11.20
2023-03-18T07:50:24.263Z,16.13
2023-03-18T07:52:54.252Z,11.33
2023-03-18T07:55:22.468Z,11.90
2023-03-18T07:57:50.738Z,15.03
2023-03-18T08:00:19.659Z,11.83
2023-03-18T08:02:48.198Z,10.23
2023-03-18T08:05:16.868Z,10.30
2023-03-18T08:07:45.053Z,13.27
2023-03-18T08:10:15.119Z,12.60
2023-03-18T08:12:52.686Z,14.40
2023-03-18T08:15:22.568Z,11.50
2023-03-18T08:17:52.714Z,12.80
2023-03-18T08:20:23.307Z,10.93
2023-03-18T08:22:51.582Z,12.03
2023-03-18T08:25:23.166Z,13.20
2023-03-18T08:27:52.515Z,12.13
2023-03-18T08:30:21.276Z,10.53
2023-03-18T08:32:49.618Z,10.30
2023-03-18T08:35:18.758Z,12.00
2023-03-18T08:37:49.240Z,13.43
2023-03-18T08:40:17.985Z,14.23
2023-03-18T08:42:48.289Z,10.23
2023-03-18T08:45:17.060Z,10.20
2023-03-18T08:47:45.372Z,11.33
2023-03-18T08:50:14.671Z,15.47
2023-03-18T08:52:42.850Z,16.73
2023-03-18T08:55:11.761Z,12.03
2023-03-18T08:57:40.076Z,18.50
2023-03-18T09:00:11.591Z,10.83
2023-03-18T09:02:40.843Z,10.43
2023-03-18T09:05:09.589Z,9.60
2023-03-18T09:07:38.067Z,10.53
2023-03-18T09:10:07.079Z,18.57
2023-03-18T09:12:35.942Z,10.00
2023-03-18T09:15:06.127Z,10.27
2023-03-18T09:17:53.525Z,11.70
2023-03-18T09:20:25.123Z,9.23
2023-03-18T09:22:54.062Z,10.60
2023-03-18T09:25:22.251Z,12.70
2023-03-18T09:27:50.597Z,14.33
2023-03-18T09:30:18.980Z,11.37
2023-03-18T09:32:49.130Z,16.57
2023-03-18T09:35:17.677Z,26.47
2023-03-18T09:37:48.437Z,17.83
2023-03-18T09:40:24.441Z,19.83
2023-03-18T09:43:01.015Z,25.63
2023-03-18T09:45:34.430Z,28.40
2023-03-18T09:48:37.892Z,18.53
2023-03-18T09:51:19.163Z,13.33
2023-03-18T09:53:53.456Z,10.57
2023-03-18T09:56:26.955Z,13.87
2023-03-18T09:59:00.533Z,9.70
2023-03-18T10:01:30.273Z,13.03
2023-03-18T10:04:06.036Z,12.43
2023-03-18T10:06:43.135Z,16.07
2023-03-18T10:09:20.328Z,21.50
2023-03-18T10:11:51.647Z,16.27
2023-03-18T10:14:25.831Z,24.63
2023-03-18T10:17:04.855Z,18.43
2023-03-18T10:19:33.837Z,22.07
2023-03-18T10:22:17.757Z,17.47
2023-03-18T10:24:53.221Z,14.87
2023-03-18T10:27:31.628Z,15.33
2023-03-18T10:30:05.588Z,17.10
2023-03-18T10:32:49.922Z,19.23
2023-03-18T10:35:31.399Z,12.40
2023-03-18T10:38:05.806Z,12.67
2023-03-18T10:40:38.717Z,14.07
2023-03-18T10:43:16.915Z,16.63
2023-03-18T10:45:48.193Z,12.50
2023-03-18T10:48:22.832Z,12.23
2023-03-18T10:50:58.361Z,10.20
2023-03-18T10:53:33.035Z,11.43
2023-03-18T10:56:06.294Z,15.37
2023-03-18T10:58:37.136Z,18.63
2023-03-18T11:01:07.907Z,7.27
2023-03-18T11:03:42.307Z,9.93
2023-03-18T11:06:18.913Z,20.10
2023-03-18T11:08:50.555Z,23.73
2023-03-18T11:11:27.896Z,17.17
2023-03-18T11:13:58.046Z,24.47
2023-03-18T11:16:31.878Z,14.43
2023-03-18T11:19:00.127Z,12.27
2023-03-18T11:21:31.658Z,11.37
2023-03-18T11:24:21.107Z,13.83
2023-03-18T11:26:55.271Z,10.07
2023-03-18T11:29:27.983Z,12.10
2023-03-18T11:31:58.896Z,10.00
2023-03-18T11:34:29.239Z,10.23
2023-03-18T11:37:04.851Z,17.10
2023-03-18T11:39:37.822Z,12.80
2023-03-18T11:42:19.315Z,9.23
2023-03-18T11:44:49.585Z,7.37
2023-03-18T11:47:24.654Z,10.13
2023-03-18T11:49:53.044Z,11.40
2023-03-18T11:52:34.226Z,10.90
2023-03-18T11:55:20.000Z,14.23
2023-03-18T11:58:10.637Z,10.13
2023-03-18T12:00:46.194Z,7.80
2023-03-18T12:03:49.699Z,6.60
2023-03-18T12:06:22.855Z,8.43
2023-03-18T12:09:14.542Z,7.20
2023-03-18T12:11:57.746Z,7.50
2023-03-18T12:14:32.822Z,8.50
2023-03-18T12:17:23.672Z,7.57
2023-03-18T12:20:18.695Z,7.87
2023-03-18T12:23:03.449Z,7.30
2023-03-18T12:25:44.840Z,8.87
2023-03-18T12:28:22.667Z,9.43
2023-03-18T12:31:05.485Z,16.10
2023-03-18T12:33:45.364Z,10.10
2023-03-18T12:36:23.943Z,12.63
2023-03-18T12:39:20.574Z,11.27
2023-03-18T12:42:02.761Z,10.57
2023-03-18T12:44:47.721Z,8.90
2023-03-18T12:47:22.168Z,6.63
2023-03-18T12:49:55.510Z,12.07
2023-03-18T12:52:31.439Z,11.73
2023-03-18T12:55:05.894Z,7.83
2023-03-18T12:57:40.666Z,7.43
2023-03-18T13:00:25.033Z,8.63
2023-03-18T13:03:23.506Z,7.50
2023-03-18T13:05:57.302Z,11.33
2023-03-18T13:08:47.367Z,10.80
2023-03-18T13:11:36.204Z,8.13
2023-03-18T13:14:12.644Z,10.23
2023-03-18T13:16:48.084Z,15.90
2023-03-18T13:19:18.561Z,8.83
2023-03-18T13:21:51.734Z,16.07
2023-03-18T13:24:38.346Z,8.13
2023-03-18T13:27:31.715Z,7.47
2023-03-18T13:30:11.187Z,7.60
2023-03-18T13:32:58.373Z,11.60
2023-03-18T13:35:56.813Z,9.07
2023-03-18T13:38:38.743Z,10.10
2023-03-18T13:41:33.719Z,9.07
2023-03-18T13:44:06.810Z,6.70
2023-03-18T13:46:36.305Z,10.20
2023-03-18T13:49:06.338Z,10.23
2023-03-18T13:51:54.918Z,7.83
2023-03-18T13:54:23.640Z,14.47
2023-03-18T13:56:55.962Z,7.87
2023-03-18T13:59:47.310Z,8.60
2023-03-18T14:02:36.684Z,8.87
2023-03-18T14:05:37.314Z,5.87
2023-03-18T14:08:07.369Z,7.90
2023-03-18T14:10:35.736Z,7.67
2023-03-18T14:13:28.011Z,6.50
2023-03-18T14:15:58.960Z,8.13
2023-03-18T14:18:29.278Z,7.53
2023-03-18T14:21:05.164Z,8.47
2023-03-18T14:23:40.036Z,6.70
2023-03-18T14:26:19.963Z,10.60
2023-03-18T14:28:56.527Z,13.70
2023-03-18T14:31:52.187Z,8.07
2023-03-18T14:34:32.600Z,13.53
2023-03-18T14:37:30.452Z,13.47
2023-03-18T14:40:07.392Z,31.37
2023-03-18T14:42:59.953Z,9.37
2023-03-18T14:45:34.993Z,17.03
2023-03-18T14:48:06.804Z,9.97
2023-03-18T14:50:43.068Z,11.83
2023-03-18T14:53:20.387Z,9.27
2023-03-18T14:55:49.917Z,13.20
2023-03-18T14:58:19.195Z,9.00
2023-03-18T15:00:49.819Z,9.40
2023-03-18T15:03:24.981Z,10.07
2023-03-18T15:05:58.209Z,7.27
2023-03-18T15:08:46.295Z,7.40
2023-03-18T15:11:17.665Z,7.80
2023-03-18T15:13:47.270Z,10.10
2023-03-18T15:16:20.030Z,9.80
2023-03-18T15:18:54.910Z,9.70
2023-03-18T15:21:27.620Z,9.60
2023-03-18T15:24:01.304Z,15.43
2023-03-18T15:26:31.955Z,11.83
2023-03-18T15:29:01.472Z,19.60
2023-03-18T15:31:31.890Z,10.37
2023-03-18T15:34:08.202Z,13.57
2023-03-18T15:36:44.001Z,16.60
2023-03-18T15:39:31.075Z,11.97
2023-03-18T15:42:01.113Z,20.80
2023-03-18T15:44:32.650Z,11.40
2023-03-18T15:47:14.880Z,8.90
2023-03-18T15:49:54.600Z,13.83
2023-03-18T15:52:26.347Z,8.13
2023-03-18T15:54:56.531Z,11.53
2023-03-18T15:57:30.601Z,5.80
2023-03-18T15:59:58.741Z,13.57
2023-03-18T16:02:27.680Z,10.00
2023-03-18T16:05:06.521Z,9.37
2023-03-18T16:07:34.858Z,10.40
2023-03-18T16:10:04.489Z,13.57
2023-03-18T16:12:35.905Z,12.47
2023-03-18T16:15:06.425Z,11.90
2023-03-18T16:17:34.841Z,12.00
2023-03-18T16:20:06.660Z,12.50
2023-03-18T16:22:35.699Z,13.10
2023-03-18T16:25:06.711Z,14.67
2023-03-18T16:27:39.735Z,12.43
2023-03-18T16:30:20.409Z,10.43
2023-03-18T16:32:48.674Z,11.73
2023-03-18T16:35:18.232Z,8.57
2023-03-18T16:37:47.993Z,10.27
2023-03-18T16:40:20.232Z,11.83
2023-03-18T16:42:49.140Z,11.60
2023-03-18T16:45:19.449Z,10.67
2023-03-18T16:47:50.234Z,13.20
2023-03-18T16:50:21.156Z,11.67
2023-03-18T16:52:50.510Z,10.30
2023-03-18T16:55:20.589Z,12.43
2023-03-18T16:57:51.717Z,10.87
2023-03-18T17:00:24.115Z,30.97
2023-03-18T17:02:53.877Z,11.63
2023-03-18T17:05:22.723Z,15.30
2023-03-18T17:07:51.795Z,15.37
2023-03-18T17:10:24.701Z,22.17
2023-03-18T17:12:57.000Z,16.83
2023-03-18T17:15:28.078Z,19.37
2023-03-18T17:17:58.771Z,18.47
2023-03-18T17:20:30.543Z,18.63
2023-03-18T17:22:58.746Z,23.37
2023-03-18T17:25:32.017Z,23.57
2023-03-18T17:28:02.826Z,21.43
2023-03-18T17:30:34.951Z,22.97
2023-03-18T17:33:03.865Z,22.47
2023-03-18T17:35:33.095Z,23.40
2023-03-18T17:38:02.053Z,23.27
2023-03-18T17:40:31.967Z,25.50
2023-03-18T17:43:01.420Z,35.53
2023-03-18T17:45:33.009Z,27.00
2023-03-18T17:48:16.153Z,42.50
2023-03-18T17:50:45.202Z,32.47
2023-03-18T17:53:25.633Z,31.27
2023-03-18T17:55:56.246Z,33.27
2023-03-18T17:58:26.626Z,29.60
2023-03-18T18:00:55.749Z,27.13
2023-03-18T18:03:27.046Z,28.30
2023-03-18T18:05:56.128Z,23.40
2023-03-18T18:08:27.251Z,26.87
2023-03-18T18:11:06.084Z,23.50
2023-03-18T18:13:34.297Z,21.90
2023-03-18T18:16:02.688Z,24.13
2023-03-18T18:18:31.223Z,23.73
2023-03-18T18:21:01.031Z,26.07
2023-03-18T18:23:34.037Z,24.20
2023-03-18T18:26:06.158Z,23.80
2023-03-18T18:28:35.841Z,22.73
2023-03-18T18:31:06.838Z,23.60
2023-03-18T18:33:37.276Z,19.17
2023-03-18T18:36:06.678Z,23.73
2023-03-18T18:38:36.432Z,18.50
2023-03-18T18:41:07.126Z,16.90
2023-03-18T18:43:36.288Z,16.07
2023-03-18T18:46:04.651Z,23.87
2023-03-18T18:48:35.571Z,18.17
2023-03-18T18:51:07.328Z,19.07
2023-03-18T18:53:37.292Z,16.03
2023-03-18T18:56:15.115Z,18.03
2023-03-18T18:58:43.567Z,17.57
2023-03-18T19:01:13.519Z,18.13
2023-03-18T19:03:43.757Z,26.50
2023-03-18T19:06:24.885Z,24.03
2023-03-18T19:08:54.660Z,23.77
2023-03-18T19:11:28.069Z,21.47
2023-03-18T19:14:18.983Z,30.13
2023-03-18T19:16:49.851Z,30.10
2023-03-18T19:19:21.406Z,30.93
2023-03-18T19:21:51.695Z,24.50
2023-03-18T19:24:29.663Z,19.57
2023-03-18T19:27:02.761Z,20.20
2023-03-18T19:29:32.106Z,17.90
2023-03-18T19:32:01.798Z,18.30
2023-03-18T19:34:32.745Z,16.97
2023-03-18T19:37:02.879Z,12.70
2023-03-18T19:39:31.950Z,16.20
2023-03-18T19:42:01.981Z,16.57
2023-03-18T19:44:30.266Z,15.03
2023-03-18T19:47:01.189Z,14.60
2023-03-18T19:49:33.876Z,20.17
2023-03-18T19:52:02.645Z,14.00
2023-03-18T19:54:33.432Z,15.23
2023-03-18T19:57:06.957Z,12.50
2023-03-18T19:59:39.474Z,17.80
2023-03-18T20:02:21.139Z,15.93
2023-03-18T20:04:49.583Z,14.90
2023-03-18T20:07:20.255Z,20.27
2023-03-18T20:09:49.612Z,17.53
2023-03-18T20:12:25.671Z,19.80
2023-03-18T20:14:54.824Z,22.63
2023-03-18T20:17:32.440Z,18.33
2023-03-18T20:20:01.186Z,17.90
2023-03-18T20:22:33.661Z,20.20
2023-03-18T20:25:02.561Z,23.87
2023-03-18T20:27:32.770Z,21.40
2023-03-18T20:30:01.586Z,18.87
2023-03-18T20:32:30.019Z,16.50
2023-03-18T20:34:58.280Z,23.17
2023-03-18T20:37:33.854Z,20.47
2023-03-18T20:40:02.950Z,19.90
2023-03-18T20:42:33.609Z,19.10
2023-03-18T20:45:02.090Z,19.93
2023-03-18T20:47:30.247Z,20.13
2023-03-18T20:49:58.425Z,18.83
2023-03-18T20:52:29.782Z,22.27
2023-03-18T20:54:58.162Z,23.17
2023-03-18T20:57:26.609Z,19.67
2023-03-18T20:59:57.022Z,20.23
2023-03-18T21:02:33.881Z,20.80
2023-03-18T21:05:03.226Z,23.17
2023-03-18T21:07:32.692Z,22.00
2023-03-18T21:10:00.856Z,22.43
2023-03-18T21:12:29.284Z,22.20
2023-03-18T21:14:58.993Z,23.67
2023-03-18T21:17:28.628Z,26.47
2023-03-18T21:20:11.081Z,25.67
2023-03-18T21:22:48.449Z,24.20
2023-03-18T21:25:21.953Z,26.87
2023-03-18T21:27:51.176Z,27.63
2023-03-18T21:30:23.231Z,27.93
2023-03-18T21:32:51.861Z,28.87
2023-03-18T21:35:22.441Z,33.87
2023-03-18T21:37:51.258Z,24.97
2023-03-18T21:40:21.831Z,29.23
2023-03-18T21:42:51.034Z,28.47
2023-03-18T21:45:22.968Z,22.97
2023-03-18T21:47:53.185Z,20.20
2023-03-18T21:50:24.064Z,22.70
2023-03-18T21:52:52.668Z,18.90
2023-03-18T21:55:21.376Z,15.93
2023-03-18T21:57:49.811Z,17.27
2023-03-18T22:00:21.680Z,15.97
2023-03-18T22:02:49.914Z,18.63
2023-03-18T22:05:20.824Z,23.10
2023-03-18T22:07:50.650Z,24.27
2023-03-18T22:10:20.938Z,16.50
2023-03-18T22:12:49.080Z,14.13
2023-03-18T22:15:43.070Z,14.83
2023-03-18T22:18:11.258Z,14.13
2023-03-18T22:20:40.594Z,14.23
2023-03-18T22:23:18.803Z,13.47
2023-03-18T22:25:48.354Z,18.30
2023-03-18T22:28:16.607Z,17.13
2023-03-18T22:30:52.501Z,13.80
2023-03-18T22:33:22.959Z,18.10
2023-03-18T22:35:51.640Z,17.27
2023-03-18T22:38:22.439Z,18.70
2023-03-18T22:40:53.365Z,21.63
2023-03-18T22:43:31.740Z,22.87
2023-03-18T22:46:02.853Z,21.40
2023-03-18T22:48:31.435Z,22.33
2023-03-18T22:51:00.860Z,23.03
2023-03-18T22:53:32.772Z,22.83
2023-03-18T22:56:06.440Z,20.87
2023-03-18T22:58:34.815Z,23.50
2023-03-18T23:01:05.115Z,22.50
2023-03-18T23:03:35.204Z,19.10
2023-03-18T23:06:05.004Z,21.30
2023-03-18T23:08:33.548Z,20.87
2023-03-18T23:11:02.906Z,23.37
2023-03-18T23:16:26.523Z,21.40
2023-03-18T23:18:54.739Z,28.83
2023-03-18T23:21:24.769Z,23.00
2023-03-18T23:23:53.662Z,27.23
2023-03-18T23:26:22.321Z,30.30
2023-03-18T23:28:50.688Z,27.80
2023-03-18T23:31:19.303Z,28.60
2023-03-18T23:33:48.823Z,25.37
2023-03-18T23:36:17.346Z,26.57
2023-03-18T23:38:45.457Z,22.20
2023-03-18T23:41:14.605Z,29.73
2023-03-18T23:43:42.758Z,32.30
2023-03-18T23:46:11.069Z,30.57
2023-03-18T23:48:39.368Z,25.13
2023-03-18T23:51:08.996Z,25.10
2023-03-18T23:53:37.216Z,31.57
2023-03-18T23:56:05.503Z,29.23
2023-03-18T23:58:33.711Z,27.00
